Time;durP1;ratioP1;P1;durP2;ratioP2;P2;SDS_P1;SDS_P2;PMS_P1;PMS_P2;Temp;Humidity;BMP_temperature;BMP_pressure;BME280_temperature;BME280_humidity;BME280_pressure;Samples;Min_cycle;Max_cycle;Signal;HPM_P1;HPM_P2
2022/01/02 00:01:20;;;;;;;8.52;4.03;;;11.60;99.90;;;;;;5098257;28;20027;-84
2022/01/02 00:03:51;;;;;;;9.23;4.53;;;11.60;99.90;;;;;;5124205;27;20123;-84
2022/01/02 00:06:24;;;;;;;8.65;4.22;;;11.70;99.90;;;;;;5095831;28;20509;-83
2022/01/02 00:08:56;;;;;;;5.95;4.30;;;11.70;99.90;;;;;;5095077;28;20097;-83
2022/01/02 00:11:24;;;;;;;9.48;4.93;;;11.60;99.90;;;;;;5074587;28;20498;-82
2022/01/02 00:13:55;;;;;;;9.45;4.40;;;11.60;99.90;;;;;;5092334;28;20043;-84
2022/01/02 00:16:21;;;;;;;9.32;4.93;;;11.70;99.90;;;;;;5125373;27;20048;-84
2022/01/02 00:19:02;;;;;;;7.70;4.72;;;11.60;99.90;;;;;;5115616;27;20035;-84
2022/01/02 00:21:29;;;;;;;10.05;5.20;;;11.60;99.90;;;;;;5096341;28;20126;-84
2022/01/02 00:24:02;;;;;;;8.68;5.55;;;11.50;99.90;;;;;;5124195;27;20047;-84
2022/01/02 00:26:43;;;;;;;16.83;6.05;;;11.50;99.90;;;;;;5095068;28;20040;-85
2022/01/02 00:29:11;;;;;;;9.85;5.78;;;11.60;99.90;;;;;;5098298;28;20044;-85
2022/01/02 00:31:39;;;;;;;12.00;6.18;;;11.50;99.90;;;;;;5097613;28;20051;-84
2022/01/02 00:34:06;;;;;;;12.05;5.40;;;11.50;99.90;;;;;;5110225;27;20066;-86
2022/01/02 00:36:32;;;;;;;9.60;5.40;;;11.60;99.90;;;;;;5078250;28;20088;-86
2022/01/02 00:38:59;;;;;;;11.73;5.82;;;11.50;99.90;;;;;;5094882;28;20099;-84
2022/01/02 00:41:54;;;;;;;8.50;5.25;;;11.50;99.90;;;;;;5123289;27;20042;-85
2022/01/02 00:44:45;;;;;;;8.63;5.40;;;11.50;99.90;;;;;;5079831;28;20047;-86
2022/01/02 00:47:37;;;;;;;12.48;6.03;;;11.50;99.90;;;;;;5097382;28;20054;-85
2022/01/02 00:50:10;;;;;;;10.15;5.38;;;11.50;99.90;;;;;;5087989;28;20036;-85
2022/01/02 00:52:44;;;;;;;11.77;5.38;;;11.50;99.90;;;;;;5092381;28;20055;-84
2022/01/02 00:55:22;;;;;;;12.48;6.03;;;11.50;99.90;;;;;;5087685;28;20043;-85
2022/01/02 00:58:08;;;;;;;11.50;5.70;;;11.50;99.90;;;;;;5097913;28;20398;-85
2022/01/02 01:00:34;;;;;;;;;;;11.50;99.90;;;;;;5098127;28;20444;-85
2022/01/02 01:03:06;;;;;;;9.60;6.10;;;11.50;99.90;;;;;;5126304;27;19916;-84
2022/01/02 01:05:33;;;;;;;12.98;6.00;;;11.50;99.90;;;;;;5092320;28;20874;-83
2022/01/02 01:08:09;;;;;;;16.52;6.57;;;11.50;99.90;;;;;;5093563;28;20130;-86
2022/01/02 01:10:38;;;;;;;11.68;5.53;;;11.50;99.90;;;;;;5098194;28;20040;-84
2022/01/02 01:13:06;;;;;;;12.95;5.63;;;11.50;99.90;;;;;;5090766;28;20410;-85
2022/01/02 01:15:33;;;;;;;13.70;6.80;;;11.50;99.90;;;;;;5092415;28;20039;-85
2022/01/02 01:18:01;;;;;;;12.75;5.82;;;11.50;99.90;;;;;;5095947;28;20067;-85
2022/01/02 01:20:30;;;;;;;8.43;5.88;;;11.50;99.90;;;;;;5092639;28;20051;-84
2022/01/02 01:22:56;;;;;;;12.18;5.57;;;11.50;99.90;;;;;;5090883;28;20494;-85
2022/01/02 01:25:23;;;;;;;12.13;6.55;;;11.50;99.90;;;;;;5091857;28;20062;-86
2022/01/02 01:27:51;;;;;;;9.30;6.07;;;11.40;99.90;;;;;;5077127;28;20146;-85
2022/01/02 01:30:19;;;;;;;11.48;6.43;;;11.50;99.90;;;;;;5089673;28;20036;-86
2022/01/02 01:32:47;;;;;;;12.65;5.97;;;11.40;99.90;;;;;;5093689;28;20063;-86
2022/01/02 01:35:14;;;;;;;10.40;6.10;;;11.40;99.90;;;;;;5094597;28;20062;-87
2022/01/02 01:37:40;;;;;;;13.23;7.32;;;11.40;99.90;;;;;;5095795;28;20032;-87
2022/01/02 01:40:08;;;;;;;12.57;6.80;;;11.40;99.90;;;;;;5092580;28;20437;-86
2022/01/02 01:42:37;;;;;;;13.13;6.75;;;11.50;99.90;;;;;;5091888;28;20767;-86
2022/01/02 01:47:48;;;;;;;13.95;6.63;;;11.40;99.90;;;;;;5091686;28;20078;-86
2022/01/02 01:50:18;;;;;;;15.40;6.78;;;11.40;99.90;;;;;;5095879;28;20043;-84
2022/01/02 01:52:43;;;;;;;11.60;6.13;;;11.40;99.90;;;;;;5088696;28;20047;-86
2022/01/02 01:55:11;;;;;;;12.55;6.60;;;11.40;99.90;;;;;;5095331;28;20040;-86
2022/01/02 01:57:38;;;;;;;12.93;7.28;;;11.40;99.90;;;;;;5093867;28;20035;-87
2022/01/02 02:00:07;;;;;;;15.60;6.75;;;11.40;99.90;;;;;;5098143;28;20098;-85
2022/01/02 02:02:33;;;;;;;14.45;8.05;;;11.40;99.90;;;;;;5121535;27;20051;-86
2022/01/02 02:04:58;;;;;;;15.38;6.70;;;11.40;99.90;;;;;;5097747;28;20039;-85
2022/01/02 02:07:30;;;;;;;10.68;6.25;;;11.40;99.90;;;;;;5095449;28;20109;-86
2022/01/02 02:12:22;;;;;;;13.13;6.38;;;11.40;99.90;;;;;;5093793;28;20039;-85
2022/01/02 02:14:48;;;;;;;13.82;6.55;;;11.40;99.90;;;;;;5126843;27;20112;-86
2022/01/02 02:17:14;;;;;;;12.07;6.28;;;11.40;99.90;;;;;;5097040;28;20036;-87
2022/01/02 02:19:39;;;;;;;12.73;6.90;;;11.40;99.90;;;;;;5091595;28;20028;-86
2022/01/02 02:22:06;;;;;;;10.57;6.63;;;11.40;99.90;;;;;;5096243;28;20113;-86
2022/01/02 02:24:32;;;;;;;13.10;6.65;;;11.40;99.90;;;;;;5093991;28;20036;-86
2022/01/02 02:26:58;;;;;;;15.73;6.97;;;11.40;99.90;;;;;;5096105;28;20040;-85
2022/01/02 02:29:24;;;;;;;19.27;7.40;;;11.40;99.90;;;;;;5090402;28;20048;-86
2022/01/02 02:31:53;;;;;;;16.75;7.28;;;11.40;99.90;;;;;;5097188;28;20035;-85
2022/01/02 02:34:19;;;;;;;14.18;6.15;;;11.50;99.90;;;;;;5090019;28;20032;-85
2022/01/02 02:36:45;;;;;;;14.10;6.53;;;11.40;99.90;;;;;;5090742;28;20101;-85
2022/01/02 02:39:10;;;;;;;12.93;6.13;;;11.40;99.90;;;;;;5123121;27;20036;-85
2022/01/02 02:41:39;;;;;;;14.93;6.68;;;11.50;99.90;;;;;;5087873;28;20040;-83
2022/01/02 02:44:15;;;;;;;19.23;6.72;;;11.40;99.90;;;;;;5119691;27;20044;-84
2022/01/02 02:49:25;;;;;;;14.90;5.55;;;11.50;99.90;;;;;;5092050;28;20055;-83
2022/01/02 02:51:53;;;;;;;17.08;6.20;;;11.50;99.90;;;;;;5127043;27;20044;-83
2022/01/02 02:54:21;;;;;;;14.27;6.75;;;11.50;99.90;;;;;;5087532;28;20106;-85
2022/01/02 02:59:19;;;;;;;19.50;6.63;;;11.60;99.90;;;;;;5127442;27;20048;-84
2022/01/02 03:01:45;;;;;;;15.73;6.60;;;11.50;99.90;;;;;;5088898;28;20047;-83
2022/01/02 03:04:11;;;;;;;14.38;6.82;;;11.50;99.90;;;;;;5090275;28;20847;-83
2022/01/02 03:06:36;;;;;;;17.35;6.72;;;11.60;99.90;;;;;;5092122;28;20088;-85
2022/01/02 03:09:08;;;;;;;10.82;6.30;;;11.40;99.90;;;;;;5088187;28;20040;-83
2022/01/02 03:11:35;;;;;;;16.77;7.47;;;11.40;99.90;;;;;;5087829;28;20040;-84
2022/01/02 03:14:00;;;;;;;12.75;6.30;;;11.40;99.90;;;;;;5091240;28;20033;-84
2022/01/02 03:16:26;;;;;;;13.82;7.03;;;11.40;99.90;;;;;;5093434;28;20097;-84
2022/01/02 03:18:51;;;;;;;13.18;7.43;;;11.40;99.90;;;;;;5088799;28;20489;-84
2022/01/02 03:21:17;;;;;;;17.05;7.13;;;11.40;99.90;;;;;;5088867;28;20051;-83
2022/01/02 03:23:43;;;;;;;18.65;7.25;;;11.40;99.90;;;;;;5087420;28;20694;-83
2022/01/02 03:26:09;;;;;;;18.42;7.65;;;11.40;99.90;;;;;;5087126;28;20071;-83
2022/01/02 03:28:35;;;;;;;13.43;6.18;;;11.40;99.90;;;;;;5086248;28;20044;-83
2022/01/02 03:31:01;;;;;;;14.10;7.20;;;11.40;99.90;;;;;;5084618;28;20506;-83
2022/01/02 03:33:27;;;;;;;17.10;7.30;;;11.40;99.90;;;;;;5088505;28;20058;-84
2022/01/02 03:35:53;;;;;;;17.77;7.47;;;11.40;99.90;;;;;;5087776;28;20451;-84
2022/01/02 03:38:18;;;;;;;17.17;6.60;;;11.40;99.90;;;;;;5091502;28;20507;-84
2022/01/02 03:40:44;;;;;;;18.67;6.93;;;11.40;99.90;;;;;;5097975;28;20044;-85
2022/01/02 03:43:10;;;;;;;17.92;8.20;;;11.40;99.90;;;;;;5118083;27;20043;-84
2022/01/02 03:45:35;;;;;;;10.02;6.47;;;11.40;99.90;;;;;;5097403;28;20085;-84
2022/01/02 03:48:01;;;;;;;13.05;6.28;;;11.40;99.90;;;;;;5087200;28;20119;-85
2022/01/02 03:50:27;;;;;;;12.40;6.35;;;11.40;99.90;;;;;;5090384;28;20090;-83
2022/01/02 03:52:53;;;;;;;15.77;7.30;;;11.40;99.90;;;;;;5088322;28;20036;-84
2022/01/02 03:55:18;;;;;;;13.90;6.38;;;11.40;99.90;;;;;;5091543;28;20046;-84
2022/01/02 03:57:44;;;;;;;16.13;6.68;;;11.40;99.90;;;;;;5094936;28;20044;-84
2022/01/02 04:00:12;;;;;;;19.08;7.55;;;11.40;99.90;;;;;;5091939;28;20044;-83
2022/01/02 04:02:38;;;;;;;18.17;6.30;;;11.40;99.90;;;;;;5085916;28;20044;-84
2022/01/02 04:05:06;;;;;;;12.23;5.30;;;11.40;99.90;;;;;;5088381;28;20050;-83
2022/01/02 04:07:32;;;;;;;19.73;7.35;;;11.40;99.90;;;;;;5084268;28;20471;-83
2022/01/02 04:10:01;;;;;;;16.77;6.60;;;11.40;99.90;;;;;;5119160;27;20089;-84
2022/01/02 04:12:27;;;;;;;25.05;6.82;;;11.50;99.90;;;;;;5087212;28;20044;-82
2022/01/02 04:14:53;;;;;;;15.00;5.28;;;11.40;99.90;;;;;;5089746;28;20046;-83
2022/01/02 04:17:18;;;;;;;13.05;6.03;;;11.50;99.90;;;;;;5091766;28;20070;-83
2022/01/02 04:19:44;;;;;;;15.20;6.22;;;11.50;99.90;;;;;;5127150;27;20441;-83
2022/01/02 04:22:09;;;;;;;14.93;6.72;;;11.50;99.90;;;;;;5089283;28;20062;-84
2022/01/02 04:24:35;;;;;;;15.45;6.07;;;11.50;99.90;;;;;;5090306;28;20036;-84
2022/01/02 04:27:00;;;;;;;21.45;5.82;;;11.50;99.90;;;;;;5123217;27;20048;-84
2022/01/02 04:29:26;;;;;;;15.82;6.45;;;11.50;99.90;;;;;;5096744;28;20044;-84
2022/01/02 04:31:51;;;;;;;10.50;5.30;;;11.50;99.90;;;;;;5090599;28;20036;-82
2022/01/02 04:34:17;;;;;;;17.38;6.30;;;11.50;99.90;;;;;;5093787;28;20058;-82
2022/01/02 04:36:42;;;;;;;13.57;4.95;;;11.50;99.90;;;;;;5093446;28;20039;-83
2022/01/02 04:39:08;;;;;;;17.40;5.28;;;11.50;99.90;;;;;;5092968;28;20039;-83
2022/01/02 04:41:34;;;;;;;16.17;5.47;;;11.50;99.90;;;;;;5093054;28;20500;-84
2022/01/02 04:43:59;;;;;;;15.45;5.88;;;11.60;99.90;;;;;;5085900;28;20077;-84
2022/01/02 04:46:25;;;;;;;15.68;5.25;;;11.60;99.90;;;;;;5091261;28;20036;-85
2022/01/02 04:48:50;;;;;;;13.60;5.00;;;11.60;99.90;;;;;;5095690;28;20081;-84
2022/01/02 04:51:16;;;;;;;18.90;5.20;;;11.60;99.90;;;;;;5090454;28;20510;-84
2022/01/02 04:53:47;;;;;;;14.77;4.97;;;11.60;99.90;;;;;;5092722;28;20035;-84
2022/01/02 04:56:14;;;;;;;11.52;4.70;;;11.60;99.90;;;;;;5093120;28;20047;-82
2022/01/02 04:58:39;;;;;;;16.45;4.85;;;11.70;99.90;;;;;;5085080;28;20036;-82
2022/01/02 05:01:11;;;;;;;13.32;4.80;;;11.70;99.90;;;;;;5085863;28;20137;-82
2022/01/02 05:03:37;;;;;;;20.13;5.65;;;11.70;99.90;;;;;;5086609;28;20047;-82
2022/01/02 05:06:03;;;;;;;14.93;5.25;;;11.70;99.90;;;;;;5085352;28;20048;-81
2022/01/02 05:08:29;;;;;;;12.15;4.55;;;11.70;99.90;;;;;;5086490;28;20566;-81
2022/01/02 05:10:54;;;;;;;18.10;5.28;;;11.70;99.90;;;;;;5084617;28;20048;-83
2022/01/02 05:13:20;;;;;;;16.10;4.93;;;11.70;99.90;;;;;;5083423;28;20085;-82
2022/01/02 05:15:45;;;;;;;15.57;4.70;;;11.80;99.90;;;;;;5087211;28;20043;-81
2022/01/02 05:18:11;;;;;;;14.77;4.05;;;11.70;99.90;;;;;;5084071;28;20044;-82
2022/01/02 05:20:37;;;;;;;14.27;4.80;;;11.80;99.90;;;;;;5088881;28;20062;-81
2022/01/02 05:23:02;;;;;;;18.65;4.97;;;11.70;99.90;;;;;;5085244;28;20040;-82
2022/01/02 05:25:28;;;;;;;19.30;4.78;;;11.80;99.90;;;;;;5090405;28;20032;-81
2022/01/02 05:27:54;;;;;;;17.00;4.53;;;11.70;99.90;;;;;;5119032;27;20082;-81
2022/01/02 05:30:19;;;;;;;18.02;5.25;;;11.80;99.90;;;;;;5083565;28;20384;-80
2022/01/02 05:32:45;;;;;;;14.20;4.40;;;11.80;99.90;;;;;;5084089;28;20119;-81
2022/01/02 05:35:11;;;;;;;9.38;4.20;;;11.90;99.90;;;;;;5087763;28;20478;-82
2022/01/02 05:37:36;;;;;;;11.98;3.95;;;11.80;99.90;;;;;;5085563;28;20027;-81
2022/01/02 05:40:02;;;;;;;13.05;4.60;;;11.80;99.90;;;;;;5091709;28;20040;-82
2022/01/02 05:42:28;;;;;;;19.45;5.45;;;11.90;99.90;;;;;;5081211;28;20135;-81
2022/01/02 05:44:53;;;;;;;15.80;4.10;;;11.80;99.90;;;;;;5084691;28;20036;-82
2022/01/02 05:47:19;;;;;;;11.10;4.15;;;11.90;99.90;;;;;;5086021;28;20020;-80
2022/01/02 05:49:44;;;;;;;10.60;4.00;;;11.90;99.90;;;;;;5089885;28;20044;-81
2022/01/02 05:52:10;;;;;;;10.82;4.30;;;11.90;99.90;;;;;;5084985;28;20652;-81
2022/01/02 05:54:36;;;;;;;12.07;3.80;;;12.00;99.90;;;;;;5087193;28;20127;-82
2022/01/02 05:57:01;;;;;;;20.58;4.45;;;11.90;99.90;;;;;;5067038;28;20127;-81
2022/01/02 05:59:27;;;;;;;17.77;4.10;;;12.00;99.90;;;;;;5085929;28;20051;-81
2022/01/02 06:01:53;;;;;;;12.52;3.67;;;12.00;99.90;;;;;;5080917;28;20044;-81
2022/01/02 06:04:18;;;;;;;10.98;3.92;;;12.00;99.90;;;;;;5118019;27;21069;-80
2022/01/02 06:06:44;;;;;;;14.80;3.78;;;12.10;99.90;;;;;;5085183;28;20107;-81
2022/01/02 06:09:10;;;;;;;12.27;3.65;;;12.10;99.90;;;;;;5085397;28;20048;-80
2022/01/02 06:11:36;;;;;;;14.00;3.10;;;12.10;99.90;;;;;;5086609;28;20096;-81
2022/01/02 06:14:01;;;;;;;9.50;2.70;;;12.10;99.90;;;;;;5083656;28;21317;-81
2022/01/02 06:16:27;;;;;;;15.73;3.28;;;12.20;99.90;;;;;;5089348;28;20032;-82
2022/01/02 06:18:53;;;;;;;12.95;2.70;;;12.20;99.90;;;;;;5084549;28;20077;-81
2022/01/02 06:21:19;;;;;;;9.13;2.45;;;12.30;99.90;;;;;;5085879;28;20115;-80
2022/01/02 06:23:45;;;;;;;11.52;3.15;;;12.20;99.90;;;;;;5080548;28;20138;-80
2022/01/02 06:26:11;;;;;;;8.73;2.72;;;12.30;99.90;;;;;;5082526;28;20048;-80
2022/01/02 06:28:37;;;;;;;8.60;2.88;;;12.30;99.90;;;;;;5089650;28;20043;-81
2022/01/02 06:31:02;;;;;;;11.50;2.78;;;12.30;99.90;;;;;;5089353;28;20044;-81
2022/01/02 06:33:28;;;;;;;9.35;2.90;;;12.30;99.90;;;;;;5081874;28;20859;-80
2022/01/02 06:35:54;;;;;;;9.95;2.90;;;12.30;99.90;;;;;;5084177;28;20037;-80
2022/01/02 06:38:21;;;;;;;10.57;3.00;;;12.30;99.90;;;;;;5086990;28;20046;-80
2022/01/02 06:40:48;;;;;;;9.38;2.63;;;12.30;99.90;;;;;;5086789;28;20406;-81
2022/01/02 06:43:15;;;;;;;9.75;2.40;;;12.40;99.90;;;;;;5086763;28;20482;-80
2022/01/02 06:45:41;;;;;;;11.90;2.85;;;12.40;99.90;;;;;;5071262;28;20064;-81
2022/01/02 06:48:07;;;;;;;11.20;2.72;;;12.40;99.90;;;;;;5085933;28;20075;-81
2022/01/02 06:50:33;;;;;;;11.90;2.75;;;12.40;99.90;;;;;;5083924;28;20082;-80
2022/01/02 06:52:58;;;;;;;11.40;2.72;;;12.40;99.90;;;;;;5083064;28;20055;-80
2022/01/02 06:55:25;;;;;;;10.15;3.45;;;12.40;99.90;;;;;;5082629;28;20063;-81
2022/01/02 06:57:50;;;;;;;10.30;2.85;;;12.30;99.90;;;;;;5087141;28;20769;-80
2022/01/02 07:00:16;;;;;;;12.60;2.72;;;12.40;99.90;;;;;;5080092;28;20036;-81
2022/01/02 07:02:42;;;;;;;6.63;2.35;;;12.40;99.90;;;;;;5081084;28;20545;-79
2022/01/02 07:05:08;;;;;;;12.63;3.45;;;12.40;99.90;;;;;;5084492;28;20044;-78
2022/01/02 07:07:43;;;;;;;9.23;2.47;;;12.30;99.90;;;;;;5081914;28;20033;-80
2022/01/02 07:10:10;;;;;;;7.95;2.50;;;12.30;99.90;;;;;;5083077;28;20501;-80
2022/01/02 07:12:36;;;;;;;13.85;3.03;;;12.30;99.90;;;;;;5083299;28;20036;-80
2022/01/02 07:15:06;;;;;;;6.70;2.45;;;12.30;99.90;;;;;;5086755;28;20093;-79
2022/01/02 07:17:31;;;;;;;10.40;2.42;;;12.30;99.90;;;;;;5115346;27;20379;-80
2022/01/02 07:19:57;;;;;;;8.15;2.70;;;12.20;99.90;;;;;;5083690;28;20045;-79
2022/01/02 07:22:23;;;;;;;8.85;3.00;;;12.20;99.90;;;;;;5081138;28;20042;-80
2022/01/02 07:24:51;;;;;;;9.30;3.28;;;12.20;99.90;;;;;;5079058;28;20055;-79
2022/01/02 07:27:21;;;;;;;13.27;2.60;;;12.20;99.90;;;;;;5082761;28;20052;-80
2022/01/02 07:29:47;;;;;;;7.45;2.85;;;12.20;99.90;;;;;;5077074;28;20044;-80
2022/01/02 07:32:14;;;;;;;9.95;3.33;;;12.10;99.90;;;;;;5078340;28;20048;-80
2022/01/02 07:34:40;;;;;;;12.57;3.25;;;12.10;99.90;;;;;;5113505;27;20080;-82
2022/01/02 07:37:05;;;;;;;10.30;3.58;;;12.10;99.90;;;;;;5083014;28;20090;-84
2022/01/02 07:39:31;;;;;;;7.05;2.53;;;12.00;99.90;;;;;;5084372;28;20068;-83
2022/01/02 07:41:57;;;;;;;7.70;2.88;;;12.10;99.90;;;;;;5066631;28;20093;-82
2022/01/02 07:44:22;;;;;;;8.05;3.58;;;12.00;99.90;;;;;;5083379;28;20036;-82
2022/01/02 07:46:48;;;;;;;8.30;3.13;;;12.10;99.90;;;;;;5116816;27;20100;-83
2022/01/02 07:49:13;;;;;;;8.38;3.00;;;12.00;99.90;;;;;;5087518;28;20127;-83
2022/01/02 07:51:39;;;;;;;4.22;2.38;;;12.00;99.90;;;;;;5083397;28;20051;-83
2022/01/02 07:54:05;;;;;;;11.00;3.33;;;12.00;99.90;;;;;;5085181;28;20040;-83
2022/01/02 07:56:31;;;;;;;8.98;3.72;;;12.00;99.90;;;;;;5085317;28;20039;-82
2022/01/02 07:58:58;;;;;;;7.05;2.78;;;11.90;99.90;;;;;;5087604;28;20060;-83
2022/01/02 08:01:24;;;;;;;8.07;2.60;;;11.90;99.90;;;;;;5105616;27;20044;-83
2022/01/02 08:03:51;;;;;;;7.72;3.00;;;12.00;99.90;;;;;;5087724;28;20048;-83
2022/01/02 08:06:17;;;;;;;9.23;3.80;;;11.90;99.90;;;;;;5083601;28;20076;-83
2022/01/02 08:08:42;;;;;;;12.18;3.33;;;11.90;99.90;;;;;;5086918;28;20072;-81
2022/01/02 08:11:08;;;;;;;5.35;2.90;;;11.90;99.90;;;;;;5085773;28;20047;-84
2022/01/02 08:13:34;;;;;;;9.32;3.65;;;11.90;99.90;;;;;;5086040;28;20060;-83
2022/01/02 08:15:59;;;;;;;7.20;3.83;;;11.90;99.90;;;;;;5091642;28;20103;-83
2022/01/02 08:18:25;;;;;;;6.57;2.90;;;11.80;99.90;;;;;;5091128;28;20947;-83
2022/01/02 08:20:50;;;;;;;9.32;3.10;;;11.90;99.90;;;;;;5095675;28;20088;-84
2022/01/02 08:23:16;;;;;;;9.50;3.22;;;11.80;99.90;;;;;;5089324;28;20077;-84
2022/01/02 08:25:42;;;;;;;6.82;2.90;;;11.80;99.90;;;;;;5090990;28;20039;-84
2022/01/02 08:28:07;;;;;;;6.90;2.95;;;11.80;99.90;;;;;;5101345;28;20050;-84
2022/01/02 08:30:33;;;;;;;6.60;2.95;;;11.80;99.90;;;;;;5092997;28;20040;-85
2022/01/02 08:32:59;;;;;;;8.57;2.85;;;11.80;99.90;;;;;;5092060;28;20040;-84
2022/01/02 08:35:25;;;;;;;10.25;3.30;;;11.80;99.90;;;;;;5087276;28;20114;-84
2022/01/02 08:37:50;;;;;;;9.02;3.30;;;11.80;99.90;;;;;;5085489;28;20051;-84
2022/01/02 08:40:16;;;;;;;10.48;3.42;;;11.80;99.90;;;;;;5087461;28;20044;-84
2022/01/02 08:42:42;;;;;;;8.43;3.00;;;11.80;99.90;;;;;;5084046;28;20461;-83
2022/01/02 08:45:08;;;;;;;7.60;2.95;;;11.70;99.90;;;;;;5087944;28;20127;-82
2022/01/02 08:47:35;;;;;;;11.65;2.83;;;11.80;99.90;;;;;;5089451;28;20079;-83
2022/01/02 08:50:01;;;;;;;8.05;2.75;;;11.80;99.90;;;;;;5093994;28;20051;-84
2022/01/02 08:52:30;;;;;;;6.70;3.28;;;11.70;99.90;;;;;;5086943;28;20047;-83
2022/01/02 08:54:55;;;;;;;7.65;3.20;;;11.70;99.90;;;;;;5090341;28;20036;-83
2022/01/02 08:57:21;;;;;;;6.70;3.30;;;11.70;99.90;;;;;;5130651;27;20039;-83
2022/01/02 08:59:47;;;;;;;7.20;2.95;;;11.70;99.90;;;;;;5089540;28;20032;-84
2022/01/02 09:02:13;;;;;;;8.80;3.05;;;11.70;99.90;;;;;;5087664;28;20065;-83
2022/01/02 09:04:39;;;;;;;9.73;3.92;;;11.60;99.90;;;;;;5088997;28;20040;-83
2022/01/02 09:07:05;;;;;;;12.57;3.92;;;11.60;99.90;;;;;;5088427;28;20525;-85
2022/01/02 09:09:30;;;;;;;8.60;3.65;;;11.60;99.90;;;;;;5098035;28;20032;-82
2022/01/02 09:11:57;;;;;;;7.85;2.80;;;11.70;99.90;;;;;;5130496;27;20069;-84
2022/01/02 09:14:23;;;;;;;12.30;2.65;;;11.70;99.90;;;;;;5102036;28;20382;-85
2022/01/02 09:16:48;;;;;;;8.23;2.75;;;11.70;99.90;;;;;;5093588;28;20048;-85
2022/01/02 09:19:14;;;;;;;10.23;3.25;;;11.70;99.90;;;;;;5098024;28;20032;-84
2022/01/02 09:21:40;;;;;;;10.55;3.10;;;11.70;99.90;;;;;;5089011;28;20123;-83
2022/01/02 09:24:06;;;;;;;9.55;2.92;;;11.80;99.90;;;;;;5088978;28;20032;-84
2022/01/02 09:26:31;;;;;;;9.55;3.30;;;11.80;99.90;;;;;;5095014;28;20067;-84
2022/01/02 09:28:57;;;;;;;5.05;2.80;;;11.80;99.90;;;;;;5091765;28;20099;-86
2022/01/02 09:31:23;;;;;;;10.02;4.25;;;11.80;99.90;;;;;;5092248;28;20042;-85
2022/01/02 09:33:50;;;;;;;10.02;3.58;;;11.90;99.90;;;;;;5092115;28;21605;-85
2022/01/02 09:36:16;;;;;;;5.22;2.92;;;11.90;99.90;;;;;;5109065;27;20043;-84
2022/01/02 09:38:42;;;;;;;9.63;3.22;;;11.90;99.90;;;;;;5093546;28;20502;-85
2022/01/02 09:41:08;;;;;;;8.43;3.20;;;12.00;99.90;;;;;;5092948;28;20509;-85
2022/01/02 09:43:34;;;;;;;7.88;2.85;;;12.00;99.90;;;;;;5091768;27;20028;-86
2022/01/02 09:46:00;;;;;;;7.20;2.60;;;12.00;99.90;;;;;;5088749;28;20036;-86
2022/01/02 09:48:27;;;;;;;6.85;2.67;;;12.10;99.90;;;;;;5093343;28;20072;-85
2022/01/02 09:50:53;;;;;;;6.35;3.03;;;12.10;99.90;;;;;;5123955;27;20051;-85
2022/01/02 09:53:18;;;;;;;7.60;2.75;;;12.20;99.90;;;;;;5088435;28;20058;-85
2022/01/02 09:55:44;;;;;;;8.98;2.92;;;12.20;99.90;;;;;;5092866;28;20036;-85
2022/01/02 09:58:12;;;;;;;11.55;3.20;;;12.30;99.90;;;;;;5097586;28;20038;-86
2022/01/02 10:00:40;;;;;;;8.90;2.88;;;12.40;99.90;;;;;;5092990;28;20056;-86
2022/01/02 10:03:09;;;;;;;9.68;3.03;;;12.30;99.90;;;;;;5089361;28;20048;-86
2022/01/02 10:05:54;;;;;;;4.93;2.67;;;12.30;99.90;;;;;;5088115;28;20417;-85
2022/01/02 10:08:27;;;;;;;8.15;2.72;;;12.30;99.90;;;;;;5128738;27;20046;-86
2022/01/02 10:11:00;;;;;;;8.82;3.28;;;12.30;99.90;;;;;;5120819;27;20129;-85
2022/01/02 10:13:42;;;;;;;10.18;3.40;;;12.30;99.90;;;;;;5087594;28;20035;-86
2022/01/02 10:16:41;;;;;;;7.65;3.08;;;12.30;99.90;;;;;;5084656;28;20040;-85
2022/01/02 10:19:29;;;;;;;8.43;3.10;;;12.30;99.90;;;;;;5121031;27;20043;-86
2022/01/02 10:22:06;;;;;;;7.97;3.05;;;12.20;99.90;;;;;;5087425;28;20040;-87
2022/01/02 10:24:36;;;;;;;7.97;3.90;;;12.20;99.90;;;;;;5088478;28;20391;-85
2022/01/02 10:27:09;;;;;;;8.98;3.80;;;12.30;99.90;;;;;;5096886;28;20040;-85
2022/01/02 10:29:50;;;;;;;7.82;3.20;;;12.20;99.90;;;;;;5095613;28;20082;-85
2022/01/02 10:32:30;;;;;;;12.95;4.18;;;12.20;99.90;;;;;;5085237;28;20517;-82
2022/01/02 10:35:18;;;;;;;9.25;3.13;;;12.20;99.90;;;;;;5088688;28;20115;-85
2022/01/02 10:37:55;;;;;;;9.23;3.53;;;12.20;99.90;;;;;;5126652;27;20119;-85
2022/01/02 10:40:33;;;;;;;6.53;3.33;;;12.20;99.90;;;;;;5123590;27;20039;-86
2022/01/02 10:43:03;;;;;;;8.23;3.10;;;12.30;99.90;;;;;;5089290;28;20066;-86
2022/01/02 10:45:35;;;;;;;10.27;3.33;;;12.30;99.90;;;;;;5094563;28;20088;-86
2022/01/02 10:48:02;;;;;;;7.05;3.55;;;12.30;99.90;;;;;;5114637;27;20055;-87
2022/01/02 10:50:28;;;;;;;5.25;3.35;;;12.30;99.90;;;;;;5094860;28;20096;-73
2022/01/02 10:52:53;;;;;;;8.35;3.05;;;12.40;99.90;;;;;;5090520;28;20044;-88
2022/01/02 10:55:21;;;;;;;11.30;3.65;;;12.40;99.90;;;;;;5121782;27;20064;-85
2022/01/02 10:57:51;;;;;;;8.27;3.63;;;12.40;99.90;;;;;;5090143;28;20043;-83
2022/01/02 11:00:22;;;;;;;9.07;3.67;;;12.40;99.90;;;;;;5093040;28;20050;-84
2022/01/02 11:02:48;;;;;;;6.90;3.05;;;12.40;99.90;;;;;;5090108;28;20508;-85
2022/01/02 11:05:15;;;;;;;9.30;4.40;;;12.40;99.90;;;;;;5124233;27;20054;-87
2022/01/02 11:07:43;;;;;;;10.60;3.22;;;12.40;99.90;;;;;;5122867;27;20483;-88
2022/01/02 11:10:13;;;;;;;8.18;2.95;;;12.40;99.90;;;;;;5120423;28;20044;-83
2022/01/02 11:12:39;;;;;;;8.75;3.38;;;12.40;99.90;;;;;;5088128;28;20036;-88
2022/01/02 11:15:10;;;;;;;5.68;2.75;;;12.40;99.90;;;;;;5098045;28;20043;-87
2022/01/02 11:17:37;;;;;;;8.60;3.35;;;12.40;99.90;;;;;;5089692;28;20074;-86
2022/01/02 11:20:12;;;;;;;11.40;3.30;;;12.30;99.90;;;;;;5124339;27;20055;-86
2022/01/02 11:22:45;;;;;;;9.77;3.58;;;12.30;99.90;;;;;;5093623;28;20027;-88
2022/01/02 11:25:24;;;;;;;10.35;3.67;;;12.30;99.90;;;;;;5094161;28;20044;-85
2022/01/02 11:27:54;;;;;;;10.05;3.65;;;12.30;99.90;;;;;;5096824;28;20036;-87
2022/01/02 11:30:34;;;;;;;11.88;4.00;;;12.30;99.90;;;;;;5100718;28;20036;-87
2022/01/02 11:33:05;;;;;;;10.45;3.03;;;12.30;99.90;;;;;;5092421;28;20036;-86
2022/01/02 11:35:32;;;;;;;10.00;2.90;;;12.30;99.90;;;;;;5094570;28;20107;-85
2022/01/02 11:38:03;;;;;;;11.23;3.58;;;12.30;99.90;;;;;;5097260;28;20129;-88
2022/01/02 11:40:57;;;;;;;7.93;2.90;;;12.20;99.90;;;;;;5092495;28;20043;-87
2022/01/02 11:43:35;;;;;;;11.73;3.80;;;12.30;99.90;;;;;;5125170;27;20052;-89
2022/01/02 11:46:51;;;;;;;8.30;2.83;;;12.20;99.90;;;;;;5096838;28;20044;-87
2022/01/02 11:49:41;;;;;;;7.57;3.03;;;12.30;99.90;;;;;;5090305;28;20044;-87
2022/01/02 11:52:22;;;;;;;9.18;2.60;;;12.20;99.90;;;;;;5127480;27;20076;-89
2022/01/02 11:54:51;;;;;;;7.88;2.85;;;12.20;99.90;;;;;;5101014;28;20056;-89
2022/01/02 11:57:18;;;;;;;8.25;3.20;;;12.20;99.90;;;;;;5094144;28;20048;-89
2022/01/02 11:59:44;;;;;;;14.60;3.38;;;12.20;99.90;;;;;;5091831;28;20048;-88
2022/01/02 12:02:23;;;;;;;11.40;2.95;;;12.30;99.90;;;;;;5092711;28;20048;-89
2022/01/02 12:05:19;;;;;;;8.45;2.88;;;12.20;99.90;;;;;;5092072;28;20043;-91
2022/01/02 12:07:55;;;;;;;9.73;2.97;;;12.20;99.90;;;;;;5097768;28;20039;-88
2022/01/02 12:10:30;;;;;;;7.07;2.30;;;12.20;99.90;;;;;;5095039;28;21154;-86
2022/01/02 12:13:20;;;;;;;11.02;2.58;;;12.20;99.90;;;;;;5094944;28;20064;-88
2022/01/02 12:15:45;;;;;;;11.25;2.70;;;12.20;99.90;;;;;;5091435;28;20076;-86
2022/01/02 12:18:16;;;;;;;13.02;2.42;;;12.20;99.90;;;;;;5099094;28;20108;-88
2022/01/02 12:20:53;;;;;;;9.15;2.58;;;12.20;99.90;;;;;;5089322;28;20043;-83
2022/01/02 12:23:40;;;;;;;14.85;3.03;;;12.20;99.90;;;;;;5088636;28;20093;-85
2022/01/02 12:26:10;;;;;;;14.68;3.55;;;12.20;99.90;;;;;;5094665;28;20040;-89
2022/01/02 12:28:56;;;;;;;14.32;3.70;;;12.20;99.90;;;;;;5094665;28;20029;-88
2022/01/02 12:31:38;;;;;;;12.43;2.78;;;12.20;99.90;;;;;;5102161;28;20503;-88
2022/01/02 12:34:07;;;;;;;9.60;2.65;;;12.20;99.90;;;;;;5097191;28;20076;-88
2022/01/02 12:36:33;;;;;;;10.20;2.30;;;12.20;99.90;;;;;;5094110;28;20039;-86
2022/01/02 12:39:01;;;;;;;13.00;2.58;;;12.20;99.90;;;;;;5103241;28;20542;-87
2022/01/02 12:41:29;;;;;;;12.55;2.40;;;12.30;99.90;;;;;;5100253;28;20044;-88
2022/01/02 12:44:00;;;;;;;9.75;3.25;;;12.30;99.90;;;;;;5094825;28;20089;-88
2022/01/02 12:46:34;;;;;;;12.68;2.75;;;12.30;99.90;;;;;;5098921;28;20040;-87
2022/01/02 12:49:01;;;;;;;9.85;2.50;;;12.30;99.90;;;;;;5096974;28;20086;-88
2022/01/02 12:51:32;;;;;;;10.38;2.72;;;12.30;99.90;;;;;;5096181;28;20039;-89
2022/01/02 12:54:04;;;;;;;14.27;2.20;;;12.30;99.90;;;;;;5092539;28;20039;-89
2022/01/02 12:56:44;;;;;;;14.30;3.00;;;12.30;99.90;;;;;;5095372;28;20093;-89
2022/01/02 12:59:34;;;;;;;12.32;3.03;;;12.30;99.90;;;;;;5092281;28;20064;-86